createdAt,value
2023-04-27T00:02:03.072Z,5.24
2023-04-27T00:04:31.200Z,5.01
2023-04-27T00:06:59.209Z,4.99
2023-04-27T00:09:27.131Z,4.90
2023-04-27T00:11:55.022Z,4.85
2023-04-27T00:14:28.459Z,4.91
2023-04-27T00:16:56.892Z,4.74
2023-04-27T00:19:24.808Z,4.77
2023-04-27T00:21:52.799Z,4.82
2023-04-27T00:24:20.721Z,4.72
2023-04-27T00:26:48.619Z,4.82
2023-04-27T00:29:16.642Z,4.62
2023-04-27T00:31:45.922Z,4.71
2023-04-27T00:34:13.835Z,4.68
2023-04-27T00:36:41.754Z,4.72
2023-04-27T00:39:09.731Z,4.87
2023-04-27T00:41:39.247Z,5.01
2023-04-27T00:44:07.319Z,5.03
2023-04-27T00:46:36.290Z,4.96
2023-04-27T00:49:05.837Z,4.74
2023-04-27T00:51:33.723Z,4.64
2023-04-27T00:54:02.101Z,4.76
2023-04-27T00:56:30.017Z,4.78
2023-04-27T00:58:58.112Z,4.62
2023-04-27T01:01:26.151Z,4.56
2023-04-27T01:03:54.589Z,4.53
2023-04-27T01:06:24.015Z,4.46
2023-04-27T01:08:52.015Z,4.48
2023-04-27T01:11:20.011Z,4.62
2023-04-27T01:13:47.933Z,4.61
2023-04-27T01:16:16.127Z,4.57
2023-04-27T01:18:44.380Z,4.57
2023-04-27T01:21:12.556Z,4.48
2023-04-27T01:23:41.891Z,4.49
2023-04-27T01:26:11.940Z,4.52
2023-04-27T01:28:39.842Z,4.39
2023-04-27T01:31:07.754Z,4.25
2023-04-27T01:33:35.714Z,4.37
2023-04-27T01:36:03.741Z,4.46
2023-04-27T01:38:31.904Z,4.49
2023-04-27T01:41:02.112Z,4.55
2023-04-27T01:43:30.123Z,4.55
2023-04-27T01:45:58.248Z,4.49
2023-04-27T01:48:26.144Z,4.27
2023-04-27T01:50:54.226Z,4.34
2023-04-27T01:53:22.211Z,4.59
2023-04-27T01:55:50.111Z,4.33
2023-04-27T01:58:19.574Z,4.14
2023-04-27T02:00:47.556Z,4.27
2023-04-27T02:03:15.701Z,4.11
2023-04-27T02:05:43.786Z,4.17
2023-04-27T02:08:11.776Z,4.28
2023-04-27T02:10:39.728Z,4.13
2023-04-27T02:13:07.704Z,4.31
2023-04-27T02:15:37.120Z,4.55
2023-04-27T02:18:05.363Z,4.41
2023-04-27T02:20:33.568Z,3.30
2023-04-27T02:23:02.207Z,2.91
2023-04-27T02:25:30.603Z,3.03
2023-04-27T02:27:58.496Z,3.36
2023-04-27T02:30:26.845Z,3.55
2023-04-27T02:32:56.241Z,3.59
2023-04-27T02:35:24.500Z,3.48
2023-04-27T02:37:52.422Z,3.50
2023-04-27T02:40:20.336Z,3.56
2023-04-27T02:42:48.228Z,3.70
2023-04-27T02:45:16.184Z,3.94
2023-04-27T02:47:44.112Z,4.13
2023-04-27T02:50:13.776Z,4.13
2023-04-27T02:52:41.709Z,4.28
2023-04-27T02:55:10.370Z,4.37
2023-04-27T02:57:38.336Z,4.26
2023-04-27T03:00:09.250Z,4.06
2023-04-27T03:02:37.260Z,4.17
2023-04-27T03:05:06.208Z,4.19
2023-04-27T03:07:35.712Z,4.26
2023-04-27T03:10:03.887Z,4.17
2023-04-27T03:12:31.810Z,4.08
2023-04-27T03:14:59.809Z,4.21
2023-04-27T03:17:27.882Z,4.14
2023-04-27T03:19:55.823Z,4.03
2023-04-27T03:22:23.746Z,3.97
2023-04-27T03:24:53.080Z,4.00
2023-04-27T03:27:21.225Z,3.89
2023-04-27T03:29:53.046Z,3.97
2023-04-27T03:32:21.211Z,4.12
2023-04-27T03:34:49.133Z,3.95
2023-04-27T03:37:17.364Z,3.96
2023-04-27T03:39:45.675Z,3.92
2023-04-27T03:42:14.976Z,3.83
2023-04-27T03:44:43.397Z,4.01
2023-04-27T03:47:11.450Z,3.90
2023-04-27T03:49:39.445Z,3.84
2023-04-27T03:52:07.372Z,3.87
2023-04-27T03:54:35.309Z,3.80
2023-04-27T03:57:04.511Z,3.69
2023-04-27T03:59:33.824Z,3.62
2023-04-27T04:02:02.389Z,3.53
2023-04-27T04:04:30.491Z,3.63
2023-04-27T04:06:58.529Z,3.81
2023-04-27T04:09:26.513Z,3.54
2023-04-27T04:11:54.478Z,3.56
2023-04-27T04:14:22.641Z,3.57
2023-04-27T04:16:52.185Z,3.73
2023-04-27T04:19:21.969Z,3.74
2023-04-27T04:21:50.172Z,3.79
2023-04-27T04:24:18.099Z,3.86
2023-04-27T04:26:46.080Z,3.88
2023-04-27T04:29:14.106Z,3.95
2023-04-27T04:31:42.326Z,3.92
2023-04-27T04:34:11.678Z,3.90
2023-04-27T04:36:39.569Z,3.86
2023-04-27T04:39:07.558Z,3.83
2023-04-27T04:41:35.461Z,3.84
2023-04-27T04:44:03.461Z,3.96
2023-04-27T04:46:32.343Z,3.70
2023-04-27T04:49:00.281Z,3.86
2023-04-27T04:51:29.618Z,3.93
2023-04-27T04:53:58.370Z,3.81
2023-04-27T04:56:27.251Z,3.65
2023-04-27T04:58:55.146Z,3.60
2023-04-27T05:01:23.293Z,3.61
2023-04-27T05:03:51.359Z,3.78
2023-04-27T05:06:19.392Z,3.84
2023-04-27T05:08:48.666Z,3.92
2023-04-27T05:11:16.575Z,4.04
2023-04-27T05:13:44.534Z,4.08
2023-04-27T05:16:12.531Z,4.16
2023-04-27T05:18:40.530Z,4.16
2023-04-27T05:21:15.101Z,4.20
2023-04-27T05:23:43.059Z,3.95
2023-04-27T05:26:15.742Z,3.94
2023-04-27T05:28:44.097Z,4.08
2023-04-27T05:31:12.304Z,4.07
2023-04-27T05:33:40.226Z,4.01
2023-04-27T05:36:09.210Z,4.02
2023-04-27T05:38:40.415Z,3.97
2023-04-27T05:41:08.532Z,4.07
2023-04-27T05:43:38.961Z,4.34
2023-04-27T05:46:07.092Z,4.47
2023-04-27T05:48:35.536Z,4.47
2023-04-27T05:51:04.075Z,4.45
2023-04-27T05:53:32.049Z,4.47
2023-04-27T05:56:01.125Z,4.49
2023-04-27T05:58:29.219Z,4.42
2023-04-27T06:00:58.478Z,4.43
2023-04-27T06:03:27.088Z,4.35
2023-04-27T06:05:58.635Z,4.47
2023-04-27T06:08:27.178Z,4.73
2023-04-27T06:10:55.317Z,4.81
2023-04-27T06:13:23.340Z,4.85
2023-04-27T06:15:51.363Z,4.97
2023-04-27T06:18:20.812Z,5.06
2023-04-27T06:20:48.751Z,5.06
2023-04-27T06:23:16.667Z,5.12
2023-04-27T06:25:45.591Z,5.23
2023-04-27T06:28:13.462Z,5.35
2023-04-27T06:30:41.410Z,5.41
2023-04-27T06:33:10.190Z,5.45
2023-04-27T06:35:39.552Z,5.51
2023-04-27T06:38:08.070Z,5.72
2023-04-27T06:40:37.067Z,5.89
2023-04-27T06:43:05.102Z,5.97
2023-04-27T06:45:32.976Z,5.95
2023-04-27T06:48:00.996Z,6.11
2023-04-27T06:50:29.302Z,6.09
2023-04-27T06:52:58.675Z,6.11
2023-04-27T06:55:26.746Z,6.19
2023-04-27T06:57:54.654Z,6.31
2023-04-27T07:00:22.949Z,6.39
2023-04-27T07:02:51.493Z,6.52
2023-04-27T07:05:19.659Z,6.59
2023-04-27T07:07:47.637Z,6.55
2023-04-27T07:10:16.951Z,6.72
2023-04-27T07:12:44.907Z,6.85
2023-04-27T07:15:12.815Z,6.82
2023-04-27T07:17:41.559Z,6.93
2023-04-27T07:20:10.249Z,6.98
2023-04-27T07:22:38.149Z,7.16
2023-04-27T07:25:06.854Z,7.23
2023-04-27T07:27:36.282Z,7.15
2023-04-27T07:30:04.589Z,7.12
2023-04-27T07:32:32.647Z,7.19
2023-04-27T07:35:00.954Z,7.25
2023-04-27T07:37:28.871Z,7.43
2023-04-27T07:39:56.783Z,7.66
2023-04-27T07:42:25.121Z,7.78
2023-04-27T07:44:54.480Z,7.90
2023-04-27T07:47:22.384Z,7.97
2023-04-27T07:49:50.324Z,8.08
2023-04-27T07:52:18.277Z,8.07
2023-04-27T07:54:46.400Z,8.07
2023-04-27T07:57:14.307Z,7.98
2023-04-27T07:59:42.233Z,8.13
2023-04-27T08:02:19.755Z,8.40
2023-04-27T08:04:49.135Z,8.70
2023-04-27T08:07:17.948Z,8.60
2023-04-27T08:09:46.153Z,8.50
2023-04-27T08:12:14.062Z,8.55
2023-04-27T08:14:42.049Z,8.75
2023-04-27T08:17:11.403Z,9.06
2023-04-27T08:19:39.701Z,9.07
2023-04-27T08:22:07.935Z,9.11
2023-04-27T08:24:36.468Z,9.17
2023-04-27T08:27:04.634Z,9.20
2023-04-27T08:29:32.831Z,8.78
2023-04-27T08:32:02.809Z,9.03
2023-04-27T08:34:32.364Z,9.12
2023-04-27T08:37:00.420Z,9.51
2023-04-27T08:39:28.848Z,9.70
2023-04-27T08:41:56.892Z,9.98
2023-04-27T08:44:24.834Z,10.04
2023-04-27T08:46:52.975Z,10.07
2023-04-27T08:49:21.904Z,9.99
2023-04-27T08:51:51.343Z,9.19
2023-04-27T08:54:20.706Z,9.10
2023-04-27T08:56:48.618Z,9.03
2023-04-27T08:59:17.749Z,9.06
2023-04-27T09:01:47.058Z,9.12
2023-04-27T09:04:15.876Z,9.24
2023-04-27T09:06:44.091Z,9.29
2023-04-27T09:09:23.549Z,9.18
2023-04-27T09:11:51.694Z,9.21
2023-04-27T09:14:21.049Z,9.38
2023-04-27T09:16:57.281Z,9.70
2023-04-27T09:19:25.952Z,10.39
2023-04-27T09:22:04.555Z,10.70
2023-04-27T09:24:34.098Z,10.73
2023-04-27T09:27:03.233Z,10.71
2023-04-27T09:29:34.862Z,10.55
2023-04-27T09:32:03.656Z,10.26
2023-04-27T09:34:41.287Z,10.23
2023-04-27T09:37:10.227Z,10.34
2023-04-27T09:39:39.537Z,10.47
2023-04-27T09:42:08.463Z,10.42
2023-04-27T09:44:37.092Z,9.95
2023-04-27T09:47:05.117Z,9.82
2023-04-27T09:49:35.915Z,9.71
2023-04-27T09:52:04.257Z,9.79
2023-04-27T09:54:33.274Z,9.45
2023-04-27T09:57:09.576Z,9.45
2023-04-27T09:59:48.116Z,9.47
2023-04-27T10:05:13.973Z,9.29
2023-04-27T10:07:42.174Z,9.57
2023-04-27T10:10:17.614Z,9.67
2023-04-27T10:12:57.193Z,9.83
2023-04-27T10:15:28.092Z,10.19
2023-04-27T10:17:58.966Z,10.07
2023-04-27T10:20:31.097Z,10.41
2023-04-27T10:22:59.817Z,10.61
2023-04-27T10:25:29.392Z,10.88
2023-04-27T10:28:01.311Z,10.64
2023-04-27T10:30:34.477Z,10.69
2023-04-27T10:33:06.235Z,10.69
2023-04-27T10:35:35.348Z,10.79
2023-04-27T10:38:08.584Z,10.34
2023-04-27T10:40:36.933Z,10.15
2023-04-27T10:43:16.563Z,9.79
2023-04-27T10:45:45.474Z,9.64
2023-04-27T10:48:15.864Z,10.15
2023-04-27T10:50:44.804Z,10.14
2023-04-27T10:53:12.881Z,10.14
2023-04-27T10:55:41.371Z,10.03
2023-04-27T10:58:09.963Z,10.37
2023-04-27T11:00:41.861Z,10.77
2023-04-27T11:03:16.715Z,10.94
2023-04-27T11:05:46.212Z,10.86
2023-04-27T11:08:15.574Z,10.58
2023-04-27T11:10:46.355Z,10.57
2023-04-27T11:13:15.883Z,10.70
2023-04-27T11:15:47.411Z,10.98
2023-04-27T11:18:16.083Z,10.85
2023-04-27T11:20:45.669Z,10.64
2023-04-27T11:23:24.405Z,10.80
2023-04-27T11:25:52.624Z,11.37
2023-04-27T11:28:22.146Z,11.04
2023-04-27T11:30:58.459Z,10.98
2023-04-27T11:33:26.626Z,11.38
2023-04-27T11:35:55.388Z,11.38
2023-04-27T11:38:23.803Z,11.39
2023-04-27T11:41:01.484Z,11.14
2023-04-27T11:43:29.708Z,11.08
2023-04-27T11:45:59.622Z,11.25
2023-04-27T11:48:29.030Z,11.16
2023-04-27T11:50:59.269Z,11.11
2023-04-27T11:53:32.261Z,10.75
2023-04-27T11:56:01.858Z,10.75
2023-04-27T11:58:30.430Z,10.74
2023-04-27T12:00:59.958Z,10.90
2023-04-27T12:03:29.338Z,10.94
2023-04-27T12:06:04.025Z,10.65
2023-04-27T12:08:39.893Z,10.82
2023-04-27T12:11:07.789Z,10.91
2023-04-27T12:13:35.713Z,11.20
2023-04-27T12:16:05.366Z,11.34
2023-04-27T12:18:33.415Z,11.30
2023-04-27T12:21:03.503Z,11.05
2023-04-27T12:23:31.719Z,10.81
2023-04-27T12:25:59.644Z,10.73
2023-04-27T12:28:27.585Z,10.55
2023-04-27T12:30:56.068Z,10.41
2023-04-27T12:33:25.481Z,10.56
2023-04-27T12:35:53.378Z,10.62
2023-04-27T12:38:22.187Z,10.40
2023-04-27T12:40:50.135Z,10.43
2023-04-27T12:43:18.093Z,10.64
2023-04-27T12:45:46.021Z,10.47
2023-04-27T12:48:16.934Z,10.46
2023-04-27T12:50:47.250Z,10.60
2023-04-27T12:53:15.149Z,10.43
2023-04-27T12:55:43.073Z,10.17
2023-04-27T12:58:11.171Z,10.45
2023-04-27T13:00:39.170Z,10.48
2023-04-27T13:03:07.862Z,10.52
2023-04-27T13:05:35.883Z,10.47
2023-04-27T13:08:05.919Z,10.53
2023-04-27T13:10:33.857Z,10.64
2023-04-27T13:13:01.771Z,10.38
2023-04-27T13:15:29.914Z,10.48
2023-04-27T13:17:59.362Z,10.63
2023-04-27T13:20:27.354Z,10.67
2023-04-27T13:22:55.513Z,10.54
2023-04-27T13:25:24.836Z,10.80
2023-04-27T13:27:53.954Z,11.23
2023-04-27T13:30:22.093Z,11.27
2023-04-27T13:32:50.012Z,11.48
2023-04-27T13:35:18.007Z,11.75
2023-04-27T13:37:46.073Z,11.91
2023-04-27T13:40:14.479Z,11.72
2023-04-27T13:42:43.833Z,11.45
2023-04-27T13:45:12.193Z,11.54
2023-04-27T13:47:40.922Z,11.53
2023-04-27T13:50:10.194Z,11.72
2023-04-27T13:52:39.159Z,11.96
2023-04-27T13:55:09.224Z,11.87
2023-04-27T13:57:37.148Z,11.70
2023-04-27T14:00:11.312Z,11.75
2023-04-27T14:02:40.868Z,11.58
2023-04-27T14:05:09.455Z,11.69
2023-04-27T14:07:37.443Z,11.43
2023-04-27T14:10:05.933Z,11.33
2023-04-27T14:12:34.096Z,11.60
2023-04-27T14:15:02.011Z,11.47
2023-04-27T14:17:31.335Z,11.68
2023-04-27T14:19:59.274Z,12.08
2023-04-27T14:22:27.579Z,12.46
2023-04-27T14:24:56.493Z,12.17
2023-04-27T14:27:24.747Z,11.94
2023-04-27T14:29:52.766Z,11.82
2023-04-27T14:32:21.195Z,11.42
2023-04-27T14:34:50.853Z,11.14
2023-04-27T14:37:18.779Z,11.48
2023-04-27T14:39:47.139Z,11.60
2023-04-27T14:42:15.074Z,11.41
2023-04-27T14:44:42.953Z,11.52
2023-04-27T14:47:13.569Z,11.42
2023-04-27T14:49:41.613Z,11.19
2023-04-27T14:52:10.892Z,11.25
2023-04-27T14:54:41.604Z,11.44
2023-04-27T14:57:09.516Z,11.32
2023-04-27T14:59:37.477Z,11.44
2023-04-27T15:02:05.918Z,11.15
2023-04-27T15:04:35.385Z,11.43
2023-04-27T15:07:03.771Z,11.56
2023-04-27T15:09:33.109Z,11.64
2023-04-27T15:12:01.985Z,11.65
2023-04-27T15:14:29.883Z,11.98
2023-04-27T15:16:57.819Z,11.88
2023-04-27T15:19:26.136Z,12.02
2023-04-27T15:21:54.056Z,11.94
2023-04-27T15:24:21.980Z,12.17
2023-04-27T15:26:51.229Z,11.74
2023-04-27T15:29:19.177Z,11.99
2023-04-27T15:31:48.467Z,12.16
2023-04-27T15:34:16.621Z,11.42
2023-04-27T15:36:44.555Z,11.83
2023-04-27T15:39:12.632Z,12.10
2023-04-27T15:41:40.806Z,12.06
2023-04-27T15:44:10.124Z,11.80
2023-04-27T15:46:38.242Z,11.45
2023-04-27T15:49:06.251Z,11.88
2023-04-27T15:51:36.490Z,12.02
2023-04-27T15:54:04.668Z,11.99
2023-04-27T15:56:32.566Z,11.97
2023-04-27T15:59:00.579Z,11.94
2023-04-27T16:01:29.927Z,11.93
2023-04-27T16:03:57.949Z,11.91
2023-04-27T16:06:31.999Z,11.91
2023-04-27T16:09:00.114Z,11.72
2023-04-27T16:11:28.059Z,11.66
2023-04-27T16:13:56.026Z,11.82
2023-04-27T16:16:24.041Z,11.78
2023-04-27T16:18:53.475Z,11.85
2023-04-27T16:21:21.457Z,11.91
2023-04-27T16:23:49.373Z,11.91
2023-04-27T16:26:17.327Z,12.23
2023-04-27T16:28:45.279Z,12.57
2023-04-27T16:31:13.700Z,12.48
2023-04-27T16:33:41.907Z,12.33
2023-04-27T16:36:12.067Z,12.30
2023-04-27T16:38:40.458Z,12.22
2023-04-27T16:41:08.391Z,12.15
2023-04-27T16:43:39.176Z,12.07
2023-04-27T16:46:08.852Z,11.90
2023-04-27T16:48:36.836Z,11.87
2023-04-27T16:51:05.061Z,11.93
2023-04-27T16:53:34.365Z,11.74
2023-04-27T16:56:02.397Z,11.80
2023-04-27T16:58:30.867Z,11.84
2023-04-27T17:00:58.887Z,11.86
2023-04-27T17:03:27.233Z,11.83
2023-04-27T17:05:55.210Z,11.81
2023-04-27T17:08:23.130Z,11.96
2023-04-27T17:10:52.457Z,11.83
2023-04-27T17:13:20.636Z,11.65
2023-04-27T17:15:48.600Z,11.57
2023-04-27T17:18:16.745Z,11.35
2023-04-27T17:20:44.619Z,11.32
2023-04-27T17:23:12.571Z,11.37
2023-04-27T17:25:41.501Z,11.33
2023-04-27T17:28:10.809Z,11.26
2023-04-27T17:30:38.744Z,11.26
2023-04-27T17:33:06.860Z,11.17
2023-04-27T17:35:34.816Z,11.08
2023-04-27T17:38:03.016Z,11.00
2023-04-27T17:40:32.128Z,10.95
2023-04-27T17:43:00.224Z,11.00
2023-04-27T17:45:29.794Z,10.91
2023-04-27T17:47:57.726Z,10.95
2023-04-27T17:50:26.033Z,10.81
2023-04-27T17:52:54.189Z,10.79
2023-04-27T17:55:24.161Z,10.86
2023-04-27T17:57:52.121Z,10.90
2023-04-27T18:00:21.443Z,10.91
2023-04-27T18:02:50.989Z,10.81
2023-04-27T18:05:19.155Z,10.78
2023-04-27T18:07:47.300Z,10.63
2023-04-27T18:10:15.297Z,10.64
2023-04-27T18:12:43.182Z,10.58
2023-04-27T18:15:11.808Z,10.52
2023-04-27T18:17:39.742Z,10.48
2023-04-27T18:20:10.730Z,10.50
2023-04-27T18:22:39.995Z,10.43
2023-04-27T18:25:09.384Z,10.25
2023-04-27T18:27:38.416Z,10.18
2023-04-27T18:30:08.318Z,10.24
2023-04-27T18:32:36.512Z,10.18
2023-04-27T18:35:05.627Z,10.14
2023-04-27T18:37:34.965Z,10.19
2023-04-27T18:40:03.760Z,10.11
2023-04-27T18:42:31.690Z,10.10
2023-04-27T18:45:01.833Z,10.06
2023-04-27T18:47:29.871Z,10.10
2023-04-27T18:49:57.782Z,10.05
2023-04-27T18:52:25.806Z,9.98
2023-04-27T18:54:55.093Z,9.93
2023-04-27T18:57:23.358Z,9.82
2023-04-27T18:59:51.306Z,9.77
2023-04-27T19:02:19.838Z,9.58
2023-04-27T19:04:56.853Z,9.46
2023-04-27T19:07:30.031Z,9.42
2023-04-27T19:09:59.296Z,9.38
2023-04-27T19:12:27.243Z,9.37
2023-04-27T19:14:55.219Z,9.27
2023-04-27T19:17:23.316Z,9.31
2023-04-27T19:19:51.375Z,9.32
2023-04-27T19:22:19.279Z,9.34
2023-04-27T19:24:47.191Z,9.38
2023-04-27T19:27:16.511Z,9.35
2023-04-27T19:29:52.065Z,9.31
2023-04-27T19:32:20.653Z,9.30
2023-04-27T19:34:48.725Z,9.24
2023-04-27T19:37:16.686Z,9.17
2023-04-27T19:39:44.622Z,9.15
2023-04-27T19:42:12.593Z,9.13
2023-04-27T19:44:41.887Z,9.10
2023-04-27T19:47:10.802Z,9.07
2023-04-27T19:49:38.765Z,9.01
2023-04-27T19:52:07.532Z,8.99
2023-04-27T19:54:36.136Z,8.92
2023-04-27T19:57:04.240Z,8.79
2023-04-27T19:59:32.171Z,8.83
2023-04-27T20:02:01.696Z,8.80
2023-04-27T20:04:29.977Z,8.79
2023-04-27T20:06:57.988Z,8.84
2023-04-27T20:09:25.904Z,8.68
2023-04-27T20:11:54.926Z,8.44
2023-04-27T20:14:22.807Z,8.28
2023-04-27T20:16:50.754Z,8.19
2023-04-27T20:19:20.873Z,8.31
2023-04-27T20:21:48.828Z,8.46
2023-04-27T20:24:17.296Z,8.46
2023-04-27T20:26:46.475Z,8.41
2023-04-27T20:29:14.450Z,8.32
2023-04-27T20:31:42.693Z,8.18
2023-04-27T20:34:11.356Z,8.02
2023-04-27T20:36:40.694Z,8.05
2023-04-27T20:39:09.033Z,8.13
2023-04-27T20:41:38.518Z,8.11
2023-04-27T20:44:07.204Z,7.95
2023-04-27T20:46:35.122Z,7.95
2023-04-27T20:49:03.304Z,7.91
2023-04-27T20:51:32.847Z,7.79
2023-04-27T20:54:02.291Z,7.84
2023-04-27T20:56:31.575Z,7.92
2023-04-27T20:58:59.588Z,7.99
2023-04-27T21:01:27.709Z,7.99
2023-04-27T21:03:55.926Z,7.93
2023-04-27T21:06:23.890Z,7.96
2023-04-27T21:08:51.930Z,7.89
2023-04-27T21:11:21.292Z,7.80
2023-04-27T21:13:49.196Z,7.89
2023-04-27T21:16:17.151Z,7.95
2023-04-27T21:18:45.072Z,7.95
2023-04-27T21:21:12.975Z,7.89
2023-04-27T21:23:40.928Z,7.80
2023-04-27T21:26:09.160Z,7.65
2023-04-27T21:28:38.513Z,7.67
2023-04-27T21:31:06.647Z,7.57
2023-04-27T21:33:34.601Z,7.48
2023-04-27T21:36:04.686Z,7.55
2023-04-27T21:38:32.707Z,7.58
2023-04-27T21:41:00.780Z,7.56
2023-04-27T21:43:28.663Z,7.60
2023-04-27T21:45:58.014Z,7.73
2023-04-27T21:48:25.924Z,7.71
2023-04-27T21:50:53.878Z,7.64
2023-04-27T21:53:22.619Z,7.65
2023-04-27T21:55:51.183Z,7.67
2023-04-27T21:58:19.144Z,7.56
2023-04-27T22:00:48.678Z,7.49
2023-04-27T22:03:18.114Z,7.49
2023-04-27T22:05:49.051Z,7.46
2023-04-27T22:08:17.801Z,7.33
2023-04-27T22:10:46.585Z,7.17
2023-04-27T22:15:45.935Z,6.63
2023-04-27T22:18:14.465Z,6.83
2023-04-27T22:20:44.023Z,7.00
2023-04-27T22:23:12.096Z,6.97
2023-04-27T22:25:42.787Z,7.03
2023-04-27T22:28:10.846Z,6.97
2023-04-27T22:30:39.449Z,6.70
2023-04-27T22:33:07.466Z,6.86
2023-04-27T22:35:36.409Z,7.05
2023-04-27T22:38:05.979Z,7.12
2023-04-27T22:40:34.290Z,7.18
2023-04-27T22:43:02.193Z,7.19
2023-04-27T22:45:30.159Z,7.09
2023-04-27T22:47:58.659Z,6.91
2023-04-27T22:50:26.776Z,6.85
2023-04-27T22:52:54.676Z,6.84
2023-04-27T22:55:24.104Z,6.79
2023-04-27T22:57:53.816Z,6.79
2023-04-27T23:00:22.056Z,6.83
2023-04-27T23:02:50.067Z,6.88
2023-04-27T23:05:18.163Z,6.86
2023-04-27T23:07:46.465Z,6.83
2023-04-27T23:10:15.256Z,6.87
2023-04-27T23:12:44.614Z,6.89
2023-04-27T23:15:13.045Z,6.79
2023-04-27T23:17:41.321Z,6.67
2023-04-27T23:20:20.467Z,6.58
2023-04-27T23:22:55.150Z,6.55
2023-04-27T23:25:23.335Z,6.60
2023-04-27T23:27:53.034Z,6.64
2023-04-27T23:30:21.851Z,6.64
2023-04-27T23:32:49.985Z,6.70
2023-04-27T23:35:17.940Z,6.70
2023-04-27T23:37:45.920Z,6.67
2023-04-27T23:40:14.145Z,6.59
2023-04-27T23:42:42.051Z,6.57
2023-04-27T23:45:12.330Z,6.57
2023-04-27T23:47:40.318Z,6.55
2023-04-27T23:50:09.102Z,6.57
2023-04-27T23:52:37.119Z,6.52
2023-04-27T23:55:05.683Z,6.53
2023-04-27T23:57:33.598Z,6.51
